sensor_id;sensor_type;location;lat;lon;timestamp;temperature;humidity
71942;DHT22;59997;53.300;-6.260;2023-04-28T00:01:41;9.83;90.92
71942;DHT22;59997;53.300;-6.260;2023-04-28T00:04:06;9.87;90.95
71942;DHT22;59997;53.300;-6.260;2023-04-28T00:06:32;9.87;90.98
71942;DHT22;59997;53.300;-6.260;2023-04-28T00:08:57;9.90;90.91
71942;DHT22;59997;53.300;-6.260;2023-04-28T00:11:23;9.87;90.91
71942;DHT22;59997;53.300;-6.260;2023-04-28T00:13:48;9.90;90.87
71942;DHT22;59997;53.300;-6.260;2023-04-28T00:16:14;9.86;90.91
71942;DHT22;59997;53.300;-6.260;2023-04-28T00:18:39;9.86;90.90
71942;DHT22;59997;53.300;-6.260;2023-04-28T00:21:05;9.82;90.94
71942;DHT22;59997;53.300;-6.260;2023-04-28T00:23:30;9.83;90.98
71942;DHT22;59997;53.300;-6.260;2023-04-28T00:25:56;9.87;91.01
71942;DHT22;59997;53.300;-6.260;2023-04-28T00:28:22;9.87;91.01
71942;DHT22;59997;53.300;-6.260;2023-04-28T00:30:48;9.83;91.02
71942;DHT22;59997;53.300;-6.260;2023-04-28T00:33:14;9.86;91.05
71942;DHT22;59997;53.300;-6.260;2023-04-28T00:35:40;9.84;91.05
71942;DHT22;59997;53.300;-6.260;2023-04-28T00:38:06;9.89;91.00
71942;DHT22;59997;53.300;-6.260;2023-04-28T00:40:33;9.82;91.02
71942;DHT22;59997;53.300;-6.260;2023-04-28T00:42:58;9.84;91.03
71942;DHT22;59997;53.300;-6.260;2023-04-28T00:45:24;9.83;91.03
71942;DHT22;59997;53.300;-6.260;2023-04-28T00:47:49;9.86;91.00
71942;DHT22;59997;53.300;-6.260;2023-04-28T00:50:15;9.83;91.03
71942;DHT22;59997;53.300;-6.260;2023-04-28T00:52:41;9.93;91.05
71942;DHT22;59997;53.300;-6.260;2023-04-28T00:55:08;9.91;90.98
71942;DHT22;59997;53.300;-6.260;2023-04-28T00:57:34;9.91;90.97
71942;DHT22;59997;53.300;-6.260;2023-04-28T01:00:00;9.93;90.98
71942;DHT22;59997;53.300;-6.260;2023-04-28T01:02:26;9.87;91.00
71942;DHT22;59997;53.300;-6.260;2023-04-28T01:04:55;9.89;91.01
71942;DHT22;59997;53.300;-6.260;2023-04-28T01:07:20;9.91;91.02
71942;DHT22;59997;53.300;-6.260;2023-04-28T01:09:46;9.87;91.00
71942;DHT22;59997;53.300;-6.260;2023-04-28T01:12:12;9.86;91.04
71942;DHT22;59997;53.300;-6.260;2023-04-28T01:14:38;9.87;91.06
71942;DHT22;59997;53.300;-6.260;2023-04-28T01:17:04;9.86;91.04
71942;DHT22;59997;53.300;-6.260;2023-04-28T01:19:29;9.93;91.11
71942;DHT22;59997;53.300;-6.260;2023-04-28T01:21:55;9.98;91.01
71942;DHT22;59997;53.300;-6.260;2023-04-28T01:24:21;9.95;90.99
71942;DHT22;59997;53.300;-6.260;2023-04-28T01:26:46;9.93;90.99
71942;DHT22;59997;53.300;-6.260;2023-04-28T01:29:13;9.93;91.01
71942;DHT22;59997;53.300;-6.260;2023-04-28T01:31:38;9.90;91.02
71942;DHT22;59997;53.300;-6.260;2023-04-28T01:34:05;9.90;91.07
71942;DHT22;59997;53.300;-6.260;2023-04-28T01:36:30;9.84;91.09
71942;DHT22;59997;53.300;-6.260;2023-04-28T01:38:57;9.87;91.13
71942;DHT22;59997;53.300;-6.260;2023-04-28T01:41:22;9.90;91.16
71942;DHT22;59997;53.300;-6.260;2023-04-28T01:43:48;9.90;91.16
71942;DHT22;59997;53.300;-6.260;2023-04-28T01:46:13;9.90;91.14
71942;DHT22;59997;53.300;-6.260;2023-04-28T01:48:39;9.90;91.14
71942;DHT22;59997;53.300;-6.260;2023-04-28T01:51:04;9.90;91.19
71942;DHT22;59997;53.300;-6.260;2023-04-28T01:53:30;9.89;91.20
71942;DHT22;59997;53.300;-6.260;2023-04-28T01:55:55;9.90;91.23
71942;DHT22;59997;53.300;-6.260;2023-04-28T01:58:22;9.90;91.26
71942;DHT22;59997;53.300;-6.260;2023-04-28T02:00:48;9.93;91.22
71942;DHT22;59997;53.300;-6.260;2023-04-28T02:03:13;9.94;91.21
71942;DHT22;59997;53.300;-6.260;2023-04-28T02:05:39;9.94;91.18
71942;DHT22;59997;53.300;-6.260;2023-04-28T02:08:04;9.91;91.17
71942;DHT22;59997;53.300;-6.260;2023-04-28T02:10:30;9.90;91.21
71942;DHT22;59997;53.300;-6.260;2023-04-28T02:12:55;9.87;91.21
71942;DHT22;59997;53.300;-6.260;2023-04-28T02:15:21;9.87;91.16
71942;DHT22;59997;53.300;-6.260;2023-04-28T02:17:46;9.90;91.23
71942;DHT22;59997;53.300;-6.260;2023-04-28T02:20:12;9.87;91.18
71942;DHT22;59997;53.300;-6.260;2023-04-28T02:22:40;9.89;91.24
71942;DHT22;59997;53.300;-6.260;2023-04-28T02:25:07;9.87;91.23
71942;DHT22;59997;53.300;-6.260;2023-04-28T02:27:34;9.86;91.25
71942;DHT22;59997;53.300;-6.260;2023-04-28T02:30:01;9.86;91.26
71942;DHT22;59997;53.300;-6.260;2023-04-28T02:32:27;9.84;91.27
71942;DHT22;59997;53.300;-6.260;2023-04-28T02:34:53;9.93;91.28
71942;DHT22;59997;53.300;-6.260;2023-04-28T02:37:19;9.98;91.20
71942;DHT22;59997;53.300;-6.260;2023-04-28T02:39:45;9.93;91.16
71942;DHT22;59997;53.300;-6.260;2023-04-28T02:42:10;9.91;91.20
71942;DHT22;59997;53.300;-6.260;2023-04-28T02:44:36;9.91;91.23
71942;DHT22;59997;53.300;-6.260;2023-04-28T02:47:01;9.91;91.21
71942;DHT22;59997;53.300;-6.260;2023-04-28T02:49:27;9.90;91.28
71942;DHT22;59997;53.300;-6.260;2023-04-28T02:51:52;9.98;91.24
71942;DHT22;59997;53.300;-6.260;2023-04-28T02:54:18;9.98;91.21
71942;DHT22;59997;53.300;-6.260;2023-04-28T02:56:55;10.01;91.14
71942;DHT22;59997;53.300;-6.260;2023-04-28T02:59:21;10.04;91.14
71942;DHT22;59997;53.300;-6.260;2023-04-28T03:01:47;10.01;91.16
71942;DHT22;59997;53.300;-6.260;2023-04-28T03:04:13;9.97;91.19
71942;DHT22;59997;53.300;-6.260;2023-04-28T03:06:39;9.93;91.17
71942;DHT22;59997;53.300;-6.260;2023-04-28T03:09:05;9.87;91.16
71942;DHT22;59997;53.300;-6.260;2023-04-28T03:11:31;9.77;91.22
71942;DHT22;59997;53.300;-6.260;2023-04-28T03:13:56;9.73;91.24
71942;DHT22;59997;53.300;-6.260;2023-04-28T03:16:22;9.66;91.25
71942;DHT22;59997;53.300;-6.260;2023-04-28T03:18:47;9.60;91.27
71942;DHT22;59997;53.300;-6.260;2023-04-28T03:21:13;9.59;91.30
71942;DHT22;59997;53.300;-6.260;2023-04-28T03:23:38;9.56;91.31
71942;DHT22;59997;53.300;-6.260;2023-04-28T03:26:04;9.55;91.34
71942;DHT22;59997;53.300;-6.260;2023-04-28T03:28:30;9.55;91.34
71942;DHT22;59997;53.300;-6.260;2023-04-28T03:30:55;9.55;91.34
71942;DHT22;59997;53.300;-6.260;2023-04-28T03:33:21;9.55;91.36
71942;DHT22;59997;53.300;-6.260;2023-04-28T03:35:47;9.57;91.37
71942;DHT22;59997;53.300;-6.260;2023-04-28T03:38:12;9.65;91.40
71942;DHT22;59997;53.300;-6.260;2023-04-28T03:40:38;9.66;91.43
71942;DHT22;59997;53.300;-6.260;2023-04-28T03:43:04;9.76;91.45
71942;DHT22;59997;53.300;-6.260;2023-04-28T03:45:30;9.80;91.43
71942;DHT22;59997;53.300;-6.260;2023-04-28T03:47:55;9.91;91.41
71942;DHT22;59997;53.300;-6.260;2023-04-28T03:50:21;9.94;91.36
71942;DHT22;59997;53.300;-6.260;2023-04-28T03:52:46;9.93;91.30
71942;DHT22;59997;53.300;-6.260;2023-04-28T03:55:12;9.93;91.37
71942;DHT22;59997;53.300;-6.260;2023-04-28T03:57:37;9.91;91.35
71942;DHT22;59997;53.300;-6.260;2023-04-28T04:00:03;9.90;91.36
71942;DHT22;59997;53.300;-6.260;2023-04-28T04:02:29;9.91;91.34
71942;DHT22;59997;53.300;-6.260;2023-04-28T04:04:55;9.90;91.36
71942;DHT22;59997;53.300;-6.260;2023-04-28T04:07:21;9.90;91.36
71942;DHT22;59997;53.300;-6.260;2023-04-28T04:09:47;9.87;91.39
71942;DHT22;59997;53.300;-6.260;2023-04-28T04:12:13;9.84;91.37
71942;DHT22;59997;53.300;-6.260;2023-04-28T04:14:38;9.80;91.37
71942;DHT22;59997;53.300;-6.260;2023-04-28T04:17:04;9.80;91.43
71942;DHT22;59997;53.300;-6.260;2023-04-28T04:19:30;9.84;91.48
71942;DHT22;59997;53.300;-6.260;2023-04-28T04:21:56;9.83;91.49
71942;DHT22;59997;53.300;-6.260;2023-04-28T04:24:21;9.90;91.48
71942;DHT22;59997;53.300;-6.260;2023-04-28T04:26:47;9.97;91.48
71942;DHT22;59997;53.300;-6.260;2023-04-28T04:29:12;9.98;91.45
71942;DHT22;59997;53.300;-6.260;2023-04-28T04:31:38;10.11;91.41
71942;DHT22;59997;53.300;-6.260;2023-04-28T04:34:03;10.17;91.35
71942;DHT22;59997;53.300;-6.260;2023-04-28T04:36:29;10.15;91.20
71942;DHT22;59997;53.300;-6.260;2023-04-28T04:38:54;10.18;91.17
71942;DHT22;59997;53.300;-6.260;2023-04-28T04:41:20;10.25;91.11
71942;DHT22;59997;53.300;-6.260;2023-04-28T04:43:46;10.21;91.01
71942;DHT22;59997;53.300;-6.260;2023-04-28T04:46:12;10.25;90.92
71942;DHT22;59997;53.300;-6.260;2023-04-28T04:48:37;10.25;90.83
71942;DHT22;59997;53.300;-6.260;2023-04-28T04:51:03;10.21;90.82
71942;DHT22;59997;53.300;-6.260;2023-04-28T04:53:28;10.21;90.91
71942;DHT22;59997;53.300;-6.260;2023-04-28T04:55:54;10.24;90.86
71942;DHT22;59997;53.300;-6.260;2023-04-28T04:58:19;10.24;90.80
71942;DHT22;59997;53.300;-6.260;2023-04-28T05:00:45;10.22;90.81
71942;DHT22;59997;53.300;-6.260;2023-04-28T05:03:11;10.25;90.77
71942;DHT22;59997;53.300;-6.260;2023-04-28T05:05:36;10.24;90.75
71942;DHT22;59997;53.300;-6.260;2023-04-28T05:08:02;10.21;90.85
71942;DHT22;59997;53.300;-6.260;2023-04-28T05:10:28;10.18;90.82
71942;DHT22;59997;53.300;-6.260;2023-04-28T05:12:53;10.29;90.85
71942;DHT22;59997;53.300;-6.260;2023-04-28T05:15:19;10.38;90.68
71942;DHT22;59997;53.300;-6.260;2023-04-28T05:17:44;10.41;90.48
71942;DHT22;59997;53.300;-6.260;2023-04-28T05:20:10;10.35;90.51
71942;DHT22;59997;53.300;-6.260;2023-04-28T05:22:35;10.35;90.55
71942;DHT22;59997;53.300;-6.260;2023-04-28T05:25:01;10.31;90.58
71942;DHT22;59997;53.300;-6.260;2023-04-28T05:27:27;10.34;90.63
71942;DHT22;59997;53.300;-6.260;2023-04-28T05:29:52;10.35;90.64
71942;DHT22;59997;53.300;-6.260;2023-04-28T05:32:17;10.31;90.74
71942;DHT22;59997;53.300;-6.260;2023-04-28T05:34:43;10.25;90.83
71942;DHT22;59997;53.300;-6.260;2023-04-28T05:37:08;10.26;90.91
71942;DHT22;59997;53.300;-6.260;2023-04-28T05:39:34;10.35;90.83
71942;DHT22;59997;53.300;-6.260;2023-04-28T05:41:59;10.41;90.77
71942;DHT22;59997;53.300;-6.260;2023-04-28T05:44:25;10.45;90.68
71942;DHT22;59997;53.300;-6.260;2023-04-28T05:46:51;10.46;90.70
71942;DHT22;59997;53.300;-6.260;2023-04-28T05:49:16;10.49;90.72
71942;DHT22;59997;53.300;-6.260;2023-04-28T05:51:42;10.56;90.72
71942;DHT22;59997;53.300;-6.260;2023-04-28T05:54:08;10.52;90.71
71942;DHT22;59997;53.300;-6.260;2023-04-28T05:56:34;10.52;90.71
71942;DHT22;59997;53.300;-6.260;2023-04-28T05:58:59;10.57;90.76
71942;DHT22;59997;53.300;-6.260;2023-04-28T06:01:31;10.66;90.77
71942;DHT22;59997;53.300;-6.260;2023-04-28T06:03:57;10.71;90.77
71942;DHT22;59997;53.300;-6.260;2023-04-28T06:06:23;10.73;90.76
71942;DHT22;59997;53.300;-6.260;2023-04-28T06:08:49;10.85;90.67
71942;DHT22;59997;53.300;-6.260;2023-04-28T06:11:14;10.88;90.55
71942;DHT22;59997;53.300;-6.260;2023-04-28T06:13:41;10.83;90.55
71942;DHT22;59997;53.300;-6.260;2023-04-28T06:16:07;10.83;90.57
71942;DHT22;59997;53.300;-6.260;2023-04-28T06:18:32;10.85;90.61
71942;DHT22;59997;53.300;-6.260;2023-04-28T06:20:58;10.90;90.56
71942;DHT22;59997;53.300;-6.260;2023-04-28T06:23:23;10.90;90.52
71942;DHT22;59997;53.300;-6.260;2023-04-28T06:25:49;10.90;90.53
71942;DHT22;59997;53.300;-6.260;2023-04-28T06:28:15;10.90;90.59
71942;DHT22;59997;53.300;-6.260;2023-04-28T06:30:41;10.93;90.62
71942;DHT22;59997;53.300;-6.260;2023-04-28T06:33:06;10.97;90.58
71942;DHT22;59997;53.300;-6.260;2023-04-28T06:35:32;11.02;90.60
71942;DHT22;59997;53.300;-6.260;2023-04-28T06:38:01;11.04;90.40
71942;DHT22;59997;53.300;-6.260;2023-04-28T06:40:27;11.02;90.46
71942;DHT22;59997;53.300;-6.260;2023-04-28T06:42:53;11.08;90.46
71942;DHT22;59997;53.300;-6.260;2023-04-28T06:45:18;11.07;90.48
71942;DHT22;59997;53.300;-6.260;2023-04-28T06:47:44;11.11;90.43
71942;DHT22;59997;53.300;-6.260;2023-04-28T06:50:09;11.21;90.36
71942;DHT22;59997;53.300;-6.260;2023-04-28T06:52:35;11.26;90.38
71942;DHT22;59997;53.300;-6.260;2023-04-28T06:55:04;11.42;90.29
71942;DHT22;59997;53.300;-6.260;2023-04-28T06:57:30;11.54;90.25
71942;DHT22;59997;53.300;-6.260;2023-04-28T06:59:55;11.67;89.69
71942;DHT22;59997;53.300;-6.260;2023-04-28T07:02:21;11.87;89.25
71942;DHT22;59997;53.300;-6.260;2023-04-28T07:04:47;11.98;88.90
71942;DHT22;59997;53.300;-6.260;2023-04-28T07:07:13;12.12;88.66
71942;DHT22;59997;53.300;-6.260;2023-04-28T07:09:39;12.33;88.58
71942;DHT22;59997;53.300;-6.260;2023-04-28T07:12:04;12.36;88.24
71942;DHT22;59997;53.300;-6.260;2023-04-28T07:14:30;12.51;88.14
71942;DHT22;59997;53.300;-6.260;2023-04-28T07:16:55;12.60;87.73
71942;DHT22;59997;53.300;-6.260;2023-04-28T07:19:21;12.67;87.78
71942;DHT22;59997;53.300;-6.260;2023-04-28T07:21:47;12.61;87.74
71942;DHT22;59997;53.300;-6.260;2023-04-28T07:24:12;12.56;87.18
71942;DHT22;59997;53.300;-6.260;2023-04-28T07:26:38;12.51;87.23
71942;DHT22;59997;53.300;-6.260;2023-04-28T07:29:03;12.43;87.43
71942;DHT22;59997;53.300;-6.260;2023-04-28T07:31:29;12.28;87.52
71942;DHT22;59997;53.300;-6.260;2023-04-28T07:33:55;12.23;87.56
71942;DHT22;59997;53.300;-6.260;2023-04-28T07:36:21;12.25;87.54
71942;DHT22;59997;53.300;-6.260;2023-04-28T07:38:46;12.18;87.65
71942;DHT22;59997;53.300;-6.260;2023-04-28T07:41:12;12.21;87.70
71942;DHT22;59997;53.300;-6.260;2023-04-28T07:43:39;12.19;87.75
71942;DHT22;59997;53.300;-6.260;2023-04-28T07:46:06;12.16;87.94
71942;DHT22;59997;53.300;-6.260;2023-04-28T07:48:33;12.21;87.92
71942;DHT22;59997;53.300;-6.260;2023-04-28T07:50:58;12.41;87.51
71942;DHT22;59997;53.300;-6.260;2023-04-28T07:53:25;12.51;87.14
71942;DHT22;59997;53.300;-6.260;2023-04-28T07:55:50;12.54;87.05
71942;DHT22;59997;53.300;-6.260;2023-04-28T07:58:16;12.63;87.17
71942;DHT22;59997;53.300;-6.260;2023-04-28T08:00:41;12.68;87.12
71942;DHT22;59997;53.300;-6.260;2023-04-28T08:03:07;12.67;87.02
71942;DHT22;59997;53.300;-6.260;2023-04-28T08:05:32;12.61;87.31
71942;DHT22;59997;53.300;-6.260;2023-04-28T08:07:58;12.61;86.87
71942;DHT22;59997;53.300;-6.260;2023-04-28T08:10:23;12.71;86.94
71942;DHT22;59997;53.300;-6.260;2023-04-28T08:12:51;12.77;86.66
71942;DHT22;59997;53.300;-6.260;2023-04-28T08:15:16;12.82;86.68
71942;DHT22;59997;53.300;-6.260;2023-04-28T08:17:42;12.91;86.56
71942;DHT22;59997;53.300;-6.260;2023-04-28T08:20:08;12.99;86.81
71942;DHT22;59997;53.300;-6.260;2023-04-28T08:22:33;13.10;86.93
71942;DHT22;59997;53.300;-6.260;2023-04-28T08:24:59;13.17;86.47
71942;DHT22;59997;53.300;-6.260;2023-04-28T08:27:25;13.24;86.23
71942;DHT22;59997;53.300;-6.260;2023-04-28T08:29:50;13.28;86.21
71942;DHT22;59997;53.300;-6.260;2023-04-28T08:32:16;13.41;85.96
71942;DHT22;59997;53.300;-6.260;2023-04-28T08:34:42;13.46;85.64
71942;DHT22;59997;53.300;-6.260;2023-04-28T08:37:07;13.60;85.93
71942;DHT22;59997;53.300;-6.260;2023-04-28T08:39:33;13.78;85.55
71942;DHT22;59997;53.300;-6.260;2023-04-28T08:42:04;14.03;85.15
71942;DHT22;59997;53.300;-6.260;2023-04-28T08:44:36;14.30;84.90
71942;DHT22;59997;53.300;-6.260;2023-04-28T08:47:12;14.64;84.51
71942;DHT22;59997;53.300;-6.260;2023-04-28T08:49:39;15.06;84.02
71942;DHT22;59997;53.300;-6.260;2023-04-28T08:52:16;15.11;82.71
71942;DHT22;59997;53.300;-6.260;2023-04-28T08:54:43;15.11;82.54
71942;DHT22;59997;53.300;-6.260;2023-04-28T08:57:09;14.89;82.67
71942;DHT22;59997;53.300;-6.260;2023-04-28T08:59:39;14.65;82.12
71942;DHT22;59997;53.300;-6.260;2023-04-28T09:02:07;14.41;82.87
71942;DHT22;59997;53.300;-6.260;2023-04-28T09:04:32;14.34;83.74
71942;DHT22;59997;53.300;-6.260;2023-04-28T09:06:58;14.34;83.14
71942;DHT22;59997;53.300;-6.260;2023-04-28T09:09:25;14.42;82.92
71942;DHT22;59997;53.300;-6.260;2023-04-28T09:14:24;14.76;82.65
71942;DHT22;59997;53.300;-6.260;2023-04-28T09:16:50;14.80;82.85
71942;DHT22;59997;53.300;-6.260;2023-04-28T09:19:16;14.64;82.90
71942;DHT22;59997;53.300;-6.260;2023-04-28T09:24:35;14.51;83.02
71942;DHT22;59997;53.300;-6.260;2023-04-28T09:27:04;14.45;83.09
71942;DHT22;59997;53.300;-6.260;2023-04-28T09:29:31;14.55;83.42
71942;DHT22;59997;53.300;-6.260;2023-04-28T09:32:19;14.61;82.68
71942;DHT22;59997;53.300;-6.260;2023-04-28T09:34:50;14.61;82.41
71942;DHT22;59997;53.300;-6.260;2023-04-28T09:37:17;14.64;82.72
71942;DHT22;59997;53.300;-6.260;2023-04-28T09:39:51;15.02;82.19
71942;DHT22;59997;53.300;-6.260;2023-04-28T09:42:40;15.19;81.29
71942;DHT22;59997;53.300;-6.260;2023-04-28T09:45:07;15.17;82.09
71942;DHT22;59997;53.300;-6.260;2023-04-28T09:47:36;15.03;82.86
71942;DHT22;59997;53.300;-6.260;2023-04-28T09:50:03;14.76;83.22
71942;DHT22;59997;53.300;-6.260;2023-04-28T09:52:32;15.02;82.92
71942;DHT22;59997;53.300;-6.260;2023-04-28T09:55:00;15.45;82.72
71942;DHT22;59997;53.300;-6.260;2023-04-28T09:57:30;15.37;80.72
71942;DHT22;59997;53.300;-6.260;2023-04-28T09:59:59;15.41;80.91
71942;DHT22;59997;53.300;-6.260;2023-04-28T10:02:25;15.35;80.84
71942;DHT22;59997;53.300;-6.260;2023-04-28T10:04:51;15.42;81.25
71942;DHT22;59997;53.300;-6.260;2023-04-28T10:07:18;15.35;80.79
71942;DHT22;59997;53.300;-6.260;2023-04-28T10:09:49;15.32;80.85
71942;DHT22;59997;53.300;-6.260;2023-04-28T10:12:22;15.32;81.56
71942;DHT22;59997;53.300;-6.260;2023-04-28T10:14:49;15.31;80.78
71942;DHT22;59997;53.300;-6.260;2023-04-28T10:17:19;15.11;82.10
71942;DHT22;59997;53.300;-6.260;2023-04-28T10:19:47;14.80;81.52
71942;DHT22;59997;53.300;-6.260;2023-04-28T10:27:41;14.68;81.46
71942;DHT22;59997;53.300;-6.260;2023-04-28T10:32:40;14.42;82.05
71942;DHT22;59997;53.300;-6.260;2023-04-28T10:38:16;14.47;82.13
71942;DHT22;59997;53.300;-6.260;2023-04-28T10:40:46;15.03;81.91
71942;DHT22;59997;53.300;-6.260;2023-04-28T10:43:13;15.59;79.45
71942;DHT22;59997;53.300;-6.260;2023-04-28T10:49:02;15.65;78.73
71942;DHT22;59997;53.300;-6.260;2023-04-28T10:58:39;15.10;79.26
71942;DHT22;59997;53.300;-6.260;2023-04-28T11:03:51;15.26;80.51
71942;DHT22;59997;53.300;-6.260;2023-04-28T11:06:36;15.17;79.81
71942;DHT22;59997;53.300;-6.260;2023-04-28T11:11:39;14.69;80.68
71942;DHT22;59997;53.300;-6.260;2023-04-28T11:16:55;14.78;80.79
71942;DHT22;59997;53.300;-6.260;2023-04-28T11:19:25;14.97;80.48
71942;DHT22;59997;53.300;-6.260;2023-04-28T11:21:53;15.23;80.27
71942;DHT22;59997;53.300;-6.260;2023-04-28T11:24:20;15.32;78.61
71942;DHT22;59997;53.300;-6.260;2023-04-28T11:26:47;15.66;77.58
71942;DHT22;59997;53.300;-6.260;2023-04-28T11:29:13;15.83;78.20
71942;DHT22;59997;53.300;-6.260;2023-04-28T11:31:40;16.00;76.52
71942;DHT22;59997;53.300;-6.260;2023-04-28T11:34:18;16.14;77.14
71942;DHT22;59997;53.300;-6.260;2023-04-28T11:36:44;16.11;75.82
71942;DHT22;59997;53.300;-6.260;2023-04-28T11:39:12;16.45;75.18
71942;DHT22;59997;53.300;-6.260;2023-04-28T11:41:39;16.97;73.68
71942;DHT22;59997;53.300;-6.260;2023-04-28T11:44:12;17.31;73.05
71942;DHT22;59997;53.300;-6.260;2023-04-28T11:46:49;17.46;73.66
71942;DHT22;59997;53.300;-6.260;2023-04-28T11:49:17;17.43;72.40
71942;DHT22;59997;53.300;-6.260;2023-04-28T11:51:42;17.27;72.19
71942;DHT22;59997;53.300;-6.260;2023-04-28T11:54:11;16.77;73.82
71942;DHT22;59997;53.300;-6.260;2023-04-28T11:56:40;16.35;75.04
71942;DHT22;59997;53.300;-6.260;2023-04-28T11:59:15;15.97;75.16
71942;DHT22;59997;53.300;-6.260;2023-04-28T12:01:52;15.83;76.64
71942;DHT22;59997;53.300;-6.260;2023-04-28T12:04:41;16.28;75.99
71942;DHT22;59997;53.300;-6.260;2023-04-28T12:07:12;16.62;74.82
71942;DHT22;59997;53.300;-6.260;2023-04-28T12:09:40;17.04;73.99
71942;DHT22;59997;53.300;-6.260;2023-04-28T12:15:00;17.47;72.76
71942;DHT22;59997;53.300;-6.260;2023-04-28T12:17:39;17.73;72.08
71942;DHT22;59997;53.300;-6.260;2023-04-28T12:20:06;17.80;71.19
71942;DHT22;59997;53.300;-6.260;2023-04-28T12:22:49;17.50;71.56
71942;DHT22;59997;53.300;-6.260;2023-04-28T12:25:16;17.53;71.92
71942;DHT22;59997;53.300;-6.260;2023-04-28T12:30:26;17.59;71.47
71942;DHT22;59997;53.300;-6.260;2023-04-28T12:32:51;17.69;71.27
71942;DHT22;59997;53.300;-6.260;2023-04-28T12:35:20;18.01;72.30
71942;DHT22;59997;53.300;-6.260;2023-04-28T12:37:46;17.98;70.10
71942;DHT22;59997;53.300;-6.260;2023-04-28T12:40:11;17.93;71.28
71942;DHT22;59997;53.300;-6.260;2023-04-28T12:42:39;17.50;71.27
71942;DHT22;59997;53.300;-6.260;2023-04-28T12:45:05;17.28;72.37
71942;DHT22;59997;53.300;-6.260;2023-04-28T12:47:31;17.06;73.87
71942;DHT22;59997;53.300;-6.260;2023-04-28T12:49:56;17.04;74.10
71942;DHT22;59997;53.300;-6.260;2023-04-28T12:52:22;17.11;72.65
71942;DHT22;59997;53.300;-6.260;2023-04-28T12:54:48;17.38;72.92
71942;DHT22;59997;53.300;-6.260;2023-04-28T12:57:14;17.65;72.30
71942;DHT22;59997;53.300;-6.260;2023-04-28T12:59:41;17.65;71.56
71942;DHT22;59997;53.300;-6.260;2023-04-28T13:02:07;17.80;71.74
71942;DHT22;59997;53.300;-6.260;2023-04-28T13:04:33;17.86;71.71
71942;DHT22;59997;53.300;-6.260;2023-04-28T13:06:58;17.66;71.42
71942;DHT22;59997;53.300;-6.260;2023-04-28T13:09:24;17.31;72.31
71942;DHT22;59997;53.300;-6.260;2023-04-28T13:11:50;16.94;72.56
71942;DHT22;59997;53.300;-6.260;2023-04-28T13:14:18;16.75;73.50
71942;DHT22;59997;53.300;-6.260;2023-04-28T13:16:44;16.63;73.85
71942;DHT22;59997;53.300;-6.260;2023-04-28T13:19:10;16.68;73.71
71942;DHT22;59997;53.300;-6.260;2023-04-28T13:21:38;16.81;74.61
71942;DHT22;59997;53.300;-6.260;2023-04-28T13:24:06;16.76;73.78
71942;DHT22;59997;53.300;-6.260;2023-04-28T13:26:32;16.83;73.32
71942;DHT22;59997;53.300;-6.260;2023-04-28T13:28:58;16.79;72.94
71942;DHT22;59997;53.300;-6.260;2023-04-28T13:31:24;17.07;72.89
71942;DHT22;59997;53.300;-6.260;2023-04-28T13:33:50;17.11;72.22
71942;DHT22;59997;53.300;-6.260;2023-04-28T13:36:16;17.20;70.88
71942;DHT22;59997;53.300;-6.260;2023-04-28T13:38:41;17.40;71.69
71942;DHT22;59997;53.300;-6.260;2023-04-28T13:41:10;17.50;70.34
71942;DHT22;59997;53.300;-6.260;2023-04-28T13:43:35;17.62;70.49
71942;DHT22;59997;53.300;-6.260;2023-04-28T13:46:01;17.93;69.73
71942;DHT22;59997;53.300;-6.260;2023-04-28T13:48:33;18.25;70.28
71942;DHT22;59997;53.300;-6.260;2023-04-28T13:50:59;18.38;70.62
71942;DHT22;59997;53.300;-6.260;2023-04-28T13:53:25;18.46;67.97
71942;DHT22;59997;53.300;-6.260;2023-04-28T13:55:50;18.66;68.67
71942;DHT22;59997;53.300;-6.260;2023-04-28T13:58:18;18.73;68.19
71942;DHT22;59997;53.300;-6.260;2023-04-28T14:00:44;18.60;66.76
71942;DHT22;59997;53.300;-6.260;2023-04-28T14:03:10;18.43;67.99
71942;DHT22;59997;53.300;-6.260;2023-04-28T14:05:35;18.95;66.66
71942;DHT22;59997;53.300;-6.260;2023-04-28T14:08:01;19.35;68.33
71942;DHT22;59997;53.300;-6.260;2023-04-28T14:10:28;19.12;66.90
71942;DHT22;59997;53.300;-6.260;2023-04-28T14:12:53;18.81;67.58
71942;DHT22;59997;53.300;-6.260;2023-04-28T14:15:19;18.83;69.05
71942;DHT22;59997;53.300;-6.260;2023-04-28T14:17:44;18.73;66.31
71942;DHT22;59997;53.300;-6.260;2023-04-28T14:20:10;18.61;66.58
71942;DHT22;59997;53.300;-6.260;2023-04-28T14:22:38;18.40;67.09
71942;DHT22;59997;53.300;-6.260;2023-04-28T14:25:05;18.15;67.81
71942;DHT22;59997;53.300;-6.260;2023-04-28T14:27:30;18.01;68.26
71942;DHT22;59997;53.300;-6.260;2023-04-28T14:29:57;17.73;69.57
71942;DHT22;59997;53.300;-6.260;2023-04-28T14:32:22;17.84;69.70
71942;DHT22;59997;53.300;-6.260;2023-04-28T14:34:48;17.76;71.30
71942;DHT22;59997;53.300;-6.260;2023-04-28T14:37:14;17.55;70.21
71942;DHT22;59997;53.300;-6.260;2023-04-28T14:39:41;17.53;70.93
71942;DHT22;59997;53.300;-6.260;2023-04-28T14:42:07;17.67;69.98
71942;DHT22;59997;53.300;-6.260;2023-04-28T14:44:33;17.67;71.71
71942;DHT22;59997;53.300;-6.260;2023-04-28T14:47:00;17.69;70.91
71942;DHT22;59997;53.300;-6.260;2023-04-28T14:49:25;17.73;69.71
71942;DHT22;59997;53.300;-6.260;2023-04-28T14:51:52;17.93;69.15
71942;DHT22;59997;53.300;-6.260;2023-04-28T14:54:18;18.11;69.56
71942;DHT22;59997;53.300;-6.260;2023-04-28T14:56:44;18.16;67.62
71942;DHT22;59997;53.300;-6.260;2023-04-28T14:59:09;18.26;67.39
71942;DHT22;59997;53.300;-6.260;2023-04-28T15:01:36;18.33;66.86
71942;DHT22;59997;53.300;-6.260;2023-04-28T15:04:02;18.33;67.72
71942;DHT22;59997;53.300;-6.260;2023-04-28T15:06:28;18.55;67.48
71942;DHT22;59997;53.300;-6.260;2023-04-28T15:08:53;18.49;67.04
71942;DHT22;59997;53.300;-6.260;2023-04-28T15:11:19;18.59;68.46
71942;DHT22;59997;53.300;-6.260;2023-04-28T15:13:44;18.83;67.23
71942;DHT22;59997;53.300;-6.260;2023-04-28T15:16:10;19.01;64.36
71942;DHT22;59997;53.300;-6.260;2023-04-28T15:18:36;19.15;64.19
71942;DHT22;59997;53.300;-6.260;2023-04-28T15:21:02;19.43;65.56
71942;DHT22;59997;53.300;-6.260;2023-04-28T15:23:27;19.59;63.35
71942;DHT22;59997;53.300;-6.260;2023-04-28T15:25:53;19.49;63.00
71942;DHT22;59997;53.300;-6.260;2023-04-28T15:28:18;19.43;64.79
71942;DHT22;59997;53.300;-6.260;2023-04-28T15:30:44;19.35;63.66
71942;DHT22;59997;53.300;-6.260;2023-04-28T15:33:10;19.29;65.66
71942;DHT22;59997;53.300;-6.260;2023-04-28T15:35:45;19.68;65.07
71942;DHT22;59997;53.300;-6.260;2023-04-28T15:38:11;19.50;63.38
71942;DHT22;59997;53.300;-6.260;2023-04-28T15:40:40;19.26;62.53
71942;DHT22;59997;53.300;-6.260;2023-04-28T15:43:06;19.19;63.51
71942;DHT22;59997;53.300;-6.260;2023-04-28T15:45:32;19.39;65.43
71942;DHT22;59997;53.300;-6.260;2023-04-28T15:48:04;19.51;64.38
71942;DHT22;59997;53.300;-6.260;2023-04-28T15:50:30;19.43;65.43
71942;DHT22;59997;53.300;-6.260;2023-04-28T15:52:56;19.20;62.67
71942;DHT22;59997;53.300;-6.260;2023-04-28T15:55:23;19.00;64.33
71942;DHT22;59997;53.300;-6.260;2023-04-28T15:57:49;18.52;65.09